sensor_id;sensor_type;location;lat;lon;timestamp;P1;durP1;ratioP1;P2;durP2;ratioP2
14076;SDS011;7114;51.100;13.998;2023-01-08T00:00:02;9.55;;;4.00;;
14076;SDS011;7114;51.100;13.998;2023-01-08T00:02:30;11.70;;;4.22;;
14076;SDS011;7114;51.100;13.998;2023-01-08T00:04:57;11.00;;;4.30;;
14076;SDS011;7114;51.100;13.998;2023-01-08T00:07:23;11.60;;;4.20;;
14076;SDS011;7114;51.100;13.998;2023-01-08T00:09:50;11.93;;;4.60;;
14076;SDS011;7114;51.100;13.998;2023-01-08T00:12:16;11.82;;;4.32;;
14076;SDS011;7114;51.100;13.998;2023-01-08T00:14:43;11.38;;;4.45;;
14076;SDS011;7114;51.100;13.998;2023-01-08T00:17:09;11.15;;;4.78;;
14076;SDS011;7114;51.100;13.998;2023-01-08T00:19:35;11.63;;;4.83;;
14076;SDS011;7114;51.100;13.998;2023-01-08T00:22:03;10.25;;;4.20;;
14076;SDS011;7114;51.100;13.998;2023-01-08T00:24:29;10.50;;;4.75;;
14076;SDS011;7114;51.100;13.998;2023-01-08T00:26:55;11.73;;;4.60;;
14076;SDS011;7114;51.100;13.998;2023-01-08T00:29:22;13.40;;;5.20;;
14076;SDS011;7114;51.100;13.998;2023-01-08T00:31:48;11.57;;;4.87;;
14076;SDS011;7114;51.100;13.998;2023-01-08T00:34:14;12.95;;;5.32;;
14076;SDS011;7114;51.100;13.998;2023-01-08T00:36:40;11.35;;;4.93;;
14076;SDS011;7114;51.100;13.998;2023-01-08T00:39:08;11.07;;;4.55;;
14076;SDS011;7114;51.100;13.998;2023-01-08T00:41:34;12.73;;;4.95;;
14076;SDS011;7114;51.100;13.998;2023-01-08T00:44:00;12.10;;;5.10;;
14076;SDS011;7114;51.100;13.998;2023-01-08T00:46:27;12.68;;;4.88;;
14076;SDS011;7114;51.100;13.998;2023-01-08T00:48:53;12.25;;;4.93;;
14076;SDS011;7114;51.100;13.998;2023-01-08T00:51:19;12.48;;;5.50;;
14076;SDS011;7114;51.100;13.998;2023-01-08T00:53:45;12.27;;;4.72;;
14076;SDS011;7114;51.100;13.998;2023-01-08T00:56:13;13.57;;;5.90;;
14076;SDS011;7114;51.100;13.998;2023-01-08T00:58:39;16.10;;;5.78;;
14076;SDS011;7114;51.100;13.998;2023-01-08T01:01:09;13.77;;;5.65;;
14076;SDS011;7114;51.100;13.998;2023-01-08T01:03:35;11.90;;;5.20;;
14076;SDS011;7114;51.100;13.998;2023-01-08T01:06:02;12.93;;;5.40;;
14076;SDS011;7114;51.100;13.998;2023-01-08T01:08:29;13.37;;;5.20;;
14076;SDS011;7114;51.100;13.998;2023-01-08T01:10:56;14.63;;;6.20;;
14076;SDS011;7114;51.100;13.998;2023-01-08T01:13:23;14.63;;;5.35;;
14076;SDS011;7114;51.100;13.998;2023-01-08T01:15:56;11.38;;;5.20;;
14076;SDS011;7114;51.100;13.998;2023-01-08T01:18:23;13.27;;;6.07;;
14076;SDS011;7114;51.100;13.998;2023-01-08T01:20:49;13.93;;;5.80;;
14076;SDS011;7114;51.100;13.998;2023-01-08T01:23:15;12.98;;;6.00;;
14076;SDS011;7114;51.100;13.998;2023-01-08T01:25:42;13.75;;;5.63;;
14076;SDS011;7114;51.100;13.998;2023-01-08T01:28:08;15.13;;;5.63;;
14076;SDS011;7114;51.100;13.998;2023-01-08T01:30:35;13.18;;;5.88;;
14076;SDS011;7114;51.100;13.998;2023-01-08T01:33:02;15.27;;;6.17;;
14076;SDS011;7114;51.100;13.998;2023-01-08T01:35:28;14.07;;;5.82;;
14076;SDS011;7114;51.100;13.998;2023-01-08T01:37:54;13.98;;;6.00;;
14076;SDS011;7114;51.100;13.998;2023-01-08T01:40:21;15.10;;;6.63;;
14076;SDS011;7114;51.100;13.998;2023-01-08T01:42:47;13.80;;;5.97;;
14076;SDS011;7114;51.100;13.998;2023-01-08T01:45:15;14.90;;;6.13;;
14076;SDS011;7114;51.100;13.998;2023-01-08T01:47:44;15.10;;;6.45;;
14076;SDS011;7114;51.100;13.998;2023-01-08T01:50:13;14.10;;;6.20;;
14076;SDS011;7114;51.100;13.998;2023-01-08T01:52:42;16.95;;;6.57;;
14076;SDS011;7114;51.100;13.998;2023-01-08T01:55:11;15.77;;;6.50;;
14076;SDS011;7114;51.100;13.998;2023-01-08T01:57:38;15.70;;;6.50;;
14076;SDS011;7114;51.100;13.998;2023-01-08T02:00:06;17.25;;;6.80;;
14076;SDS011;7114;51.100;13.998;2023-01-08T02:02:33;13.70;;;6.32;;
14076;SDS011;7114;51.100;13.998;2023-01-08T02:05:01;14.63;;;6.57;;
14076;SDS011;7114;51.100;13.998;2023-01-08T02:07:29;14.65;;;6.65;;
14076;SDS011;7114;51.100;13.998;2023-01-08T02:10:02;15.67;;;6.70;;
14076;SDS011;7114;51.100;13.998;2023-01-08T02:12:33;16.67;;;6.88;;
14076;SDS011;7114;51.100;13.998;2023-01-08T02:15:02;16.55;;;7.00;;
14076;SDS011;7114;51.100;13.998;2023-01-08T02:17:36;18.20;;;7.65;;
14076;SDS011;7114;51.100;13.998;2023-01-08T02:20:08;18.13;;;7.90;;
14076;SDS011;7114;51.100;13.998;2023-01-08T02:22:42;16.37;;;7.13;;
14076;SDS011;7114;51.100;13.998;2023-01-08T02:25:13;17.90;;;7.63;;
14076;SDS011;7114;51.100;13.998;2023-01-08T02:27:45;16.73;;;6.90;;
14076;SDS011;7114;51.100;13.998;2023-01-08T02:30:14;17.35;;;7.00;;
14076;SDS011;7114;51.100;13.998;2023-01-08T02:32:40;18.17;;;7.60;;
14076;SDS011;7114;51.100;13.998;2023-01-08T02:35:07;16.57;;;7.63;;
14076;SDS011;7114;51.100;13.998;2023-01-08T02:37:34;17.65;;;7.78;;
14076;SDS011;7114;51.100;13.998;2023-01-08T02:40:14;16.77;;;6.95;;
14076;SDS011;7114;51.100;13.998;2023-01-08T02:42:49;17.70;;;7.72;;
14076;SDS011;7114;51.100;13.998;2023-01-08T02:45:20;16.05;;;7.28;;
14076;SDS011;7114;51.100;13.998;2023-01-08T02:47:52;18.30;;;7.97;;
14076;SDS011;7114;51.100;13.998;2023-01-08T02:50:22;17.52;;;7.75;;
14076;SDS011;7114;51.100;13.998;2023-01-08T02:52:52;17.52;;;7.80;;
14076;SDS011;7114;51.100;13.998;2023-01-08T02:55:21;18.80;;;8.43;;
14076;SDS011;7114;51.100;13.998;2023-01-08T02:57:50;18.77;;;7.78;;
14076;SDS011;7114;51.100;13.998;2023-01-08T03:00:17;18.27;;;7.67;;
14076;SDS011;7114;51.100;13.998;2023-01-08T03:02:43;19.58;;;8.70;;
14076;SDS011;7114;51.100;13.998;2023-01-08T03:05:12;17.30;;;7.68;;
14076;SDS011;7114;51.100;13.998;2023-01-08T03:07:40;19.13;;;8.27;;
14076;SDS011;7114;51.100;13.998;2023-01-08T03:10:09;19.33;;;8.35;;
14076;SDS011;7114;51.100;13.998;2023-01-08T03:12:39;20.27;;;8.90;;
14076;SDS011;7114;51.100;13.998;2023-01-08T03:15:12;19.13;;;9.00;;
14076;SDS011;7114;51.100;13.998;2023-01-08T03:17:40;19.40;;;8.63;;
14076;SDS011;7114;51.100;13.998;2023-01-08T03:20:09;19.73;;;8.45;;
14076;SDS011;7114;51.100;13.998;2023-01-08T03:22:38;19.90;;;8.77;;
14076;SDS011;7114;51.100;13.998;2023-01-08T03:25:06;19.70;;;8.63;;
14076;SDS011;7114;51.100;13.998;2023-01-08T03:27:34;20.80;;;9.02;;
14076;SDS011;7114;51.100;13.998;2023-01-08T03:30:03;18.88;;;8.77;;
14076;SDS011;7114;51.100;13.998;2023-01-08T03:32:33;20.05;;;8.82;;
14076;SDS011;7114;51.100;13.998;2023-01-08T03:34:59;20.65;;;8.85;;
14076;SDS011;7114;51.100;13.998;2023-01-08T03:37:28;18.33;;;8.37;;
14076;SDS011;7114;51.100;13.998;2023-01-08T03:39:59;20.30;;;9.40;;
14076;SDS011;7114;51.100;13.998;2023-01-08T03:42:29;22.35;;;9.82;;
14076;SDS011;7114;51.100;13.998;2023-01-08T03:44:56;19.95;;;8.82;;
14076;SDS011;7114;51.100;13.998;2023-01-08T03:47:22;19.50;;;9.32;;
14076;SDS011;7114;51.100;13.998;2023-01-08T03:49:51;21.20;;;8.80;;
14076;SDS011;7114;51.100;13.998;2023-01-08T03:52:22;20.58;;;9.27;;
14076;SDS011;7114;51.100;13.998;2023-01-08T03:54:48;22.65;;;9.00;;
14076;SDS011;7114;51.100;13.998;2023-01-08T03:57:15;21.65;;;9.05;;
14076;SDS011;7114;51.100;13.998;2023-01-08T03:59:41;21.98;;;9.07;;
14076;SDS011;7114;51.100;13.998;2023-01-08T04:02:07;20.33;;;8.70;;
14076;SDS011;7114;51.100;13.998;2023-01-08T04:04:34;20.95;;;9.20;;
14076;SDS011;7114;51.100;13.998;2023-01-08T04:07:01;20.35;;;9.07;;
14076;SDS011;7114;51.100;13.998;2023-01-08T04:09:28;22.77;;;9.32;;
14076;SDS011;7114;51.100;13.998;2023-01-08T04:11:54;20.00;;;8.85;;
14076;SDS011;7114;51.100;13.998;2023-01-08T04:14:20;18.67;;;8.17;;
14076;SDS011;7114;51.100;13.998;2023-01-08T04:16:46;21.35;;;9.45;;
14076;SDS011;7114;51.100;13.998;2023-01-08T04:19:13;23.52;;;9.70;;
14076;SDS011;7114;51.100;13.998;2023-01-08T04:21:39;20.40;;;9.20;;
14076;SDS011;7114;51.100;13.998;2023-01-08T04:24:07;21.52;;;9.35;;
14076;SDS011;7114;51.100;13.998;2023-01-08T04:26:33;23.03;;;9.80;;
14076;SDS011;7114;51.100;13.998;2023-01-08T04:29:00;21.60;;;9.27;;
14076;SDS011;7114;51.100;13.998;2023-01-08T04:31:27;21.67;;;9.57;;
14076;SDS011;7114;51.100;13.998;2023-01-08T04:33:53;24.45;;;10.15;;
14076;SDS011;7114;51.100;13.998;2023-01-08T04:36:19;22.10;;;9.43;;
14076;SDS011;7114;51.100;13.998;2023-01-08T04:38:46;21.70;;;9.63;;
14076;SDS011;7114;51.100;13.998;2023-01-08T04:41:13;24.65;;;10.18;;
14076;SDS011;7114;51.100;13.998;2023-01-08T04:43:42;22.50;;;9.52;;
14076;SDS011;7114;51.100;13.998;2023-01-08T04:46:08;21.40;;;9.50;;
14076;SDS011;7114;51.100;13.998;2023-01-08T04:48:35;22.73;;;9.60;;
14076;SDS011;7114;51.100;13.998;2023-01-08T04:51:02;23.70;;;10.03;;
14076;SDS011;7114;51.100;13.998;2023-01-08T04:53:29;23.48;;;10.38;;
14076;SDS011;7114;51.100;13.998;2023-01-08T04:56:01;22.35;;;9.68;;
14076;SDS011;7114;51.100;13.998;2023-01-08T04:58:29;22.67;;;9.48;;
14076;SDS011;7114;51.100;13.998;2023-01-08T05:00:55;22.70;;;9.18;;
14076;SDS011;7114;51.100;13.998;2023-01-08T05:03:22;23.33;;;9.37;;
14076;SDS011;7114;51.100;13.998;2023-01-08T05:05:48;21.10;;;9.20;;
14076;SDS011;7114;51.100;13.998;2023-01-08T05:08:14;22.02;;;9.27;;
14076;SDS011;7114;51.100;13.998;2023-01-08T05:10:40;22.27;;;9.80;;
14076;SDS011;7114;51.100;13.998;2023-01-08T05:13:07;20.88;;;9.48;;
14076;SDS011;7114;51.100;13.998;2023-01-08T05:15:34;22.43;;;9.83;;
14076;SDS011;7114;51.100;13.998;2023-01-08T05:18:01;23.92;;;9.90;;
14076;SDS011;7114;51.100;13.998;2023-01-08T05:20:28;24.02;;;9.82;;
14076;SDS011;7114;51.100;13.998;2023-01-08T05:22:55;23.27;;;9.35;;
14076;SDS011;7114;51.100;13.998;2023-01-08T05:25:22;23.08;;;9.18;;
14076;SDS011;7114;51.100;13.998;2023-01-08T05:27:49;22.83;;;9.70;;
14076;SDS011;7114;51.100;13.998;2023-01-08T05:30:15;24.10;;;9.48;;
14076;SDS011;7114;51.100;13.998;2023-01-08T05:32:43;23.23;;;9.57;;
14076;SDS011;7114;51.100;13.998;2023-01-08T05:35:09;22.33;;;9.45;;
14076;SDS011;7114;51.100;13.998;2023-01-08T05:37:36;21.48;;;9.52;;
14076;SDS011;7114;51.100;13.998;2023-01-08T05:40:03;25.47;;;10.30;;
14076;SDS011;7114;51.100;13.998;2023-01-08T05:42:32;19.85;;;9.10;;
14076;SDS011;7114;51.100;13.998;2023-01-08T05:44:58;21.35;;;9.13;;
14076;SDS011;7114;51.100;13.998;2023-01-08T05:47:27;23.33;;;9.65;;
14076;SDS011;7114;51.100;13.998;2023-01-08T05:49:56;22.48;;;9.30;;
14076;SDS011;7114;51.100;13.998;2023-01-08T05:52:22;22.20;;;9.60;;
14076;SDS011;7114;51.100;13.998;2023-01-08T05:54:48;22.48;;;9.63;;
14076;SDS011;7114;51.100;13.998;2023-01-08T05:57:14;23.42;;;9.98;;
14076;SDS011;7114;51.100;13.998;2023-01-08T05:59:41;23.13;;;9.90;;
14076;SDS011;7114;51.100;13.998;2023-01-08T06:02:07;23.58;;;10.07;;
14076;SDS011;7114;51.100;13.998;2023-01-08T06:04:34;23.07;;;9.80;;
14076;SDS011;7114;51.100;13.998;2023-01-08T06:07:01;23.95;;;9.38;;
14076;SDS011;7114;51.100;13.998;2023-01-08T06:09:27;26.30;;;9.85;;
14076;SDS011;7114;51.100;13.998;2023-01-08T06:11:54;23.23;;;9.45;;
14076;SDS011;7114;51.100;13.998;2023-01-08T06:14:22;23.50;;;9.45;;
14076;SDS011;7114;51.100;13.998;2023-01-08T06:16:48;26.73;;;10.13;;
14076;SDS011;7114;51.100;13.998;2023-01-08T06:19:14;25.35;;;10.25;;
14076;SDS011;7114;51.100;13.998;2023-01-08T06:21:42;22.52;;;9.27;;
14076;SDS011;7114;51.100;13.998;2023-01-08T06:24:10;27.25;;;10.38;;
14076;SDS011;7114;51.100;13.998;2023-01-08T06:26:36;24.08;;;9.20;;
14076;SDS011;7114;51.100;13.998;2023-01-08T06:29:03;23.87;;;10.13;;
14076;SDS011;7114;51.100;13.998;2023-01-08T06:31:29;23.13;;;9.77;;
14076;SDS011;7114;51.100;13.998;2023-01-08T06:33:55;23.17;;;9.95;;
14076;SDS011;7114;51.100;13.998;2023-01-08T06:36:21;23.48;;;9.57;;
14076;SDS011;7114;51.100;13.998;2023-01-08T06:38:48;24.13;;;10.35;;
14076;SDS011;7114;51.100;13.998;2023-01-08T06:41:15;24.70;;;9.97;;
14076;SDS011;7114;51.100;13.998;2023-01-08T06:43:41;25.35;;;10.30;;
14076;SDS011;7114;51.100;13.998;2023-01-08T06:46:08;24.08;;;9.80;;
14076;SDS011;7114;51.100;13.998;2023-01-08T06:48:35;22.42;;;9.52;;
14076;SDS011;7114;51.100;13.998;2023-01-08T06:51:02;24.80;;;9.95;;
14076;SDS011;7114;51.100;13.998;2023-01-08T06:53:29;23.53;;;9.97;;
14076;SDS011;7114;51.100;13.998;2023-01-08T06:55:55;22.33;;;9.70;;
14076;SDS011;7114;51.100;13.998;2023-01-08T06:58:24;23.05;;;9.02;;
14076;SDS011;7114;51.100;13.998;2023-01-08T07:00:52;24.65;;;9.65;;
14076;SDS011;7114;51.100;13.998;2023-01-08T07:03:19;24.40;;;9.07;;
14076;SDS011;7114;51.100;13.998;2023-01-08T07:05:45;23.17;;;9.47;;
14076;SDS011;7114;51.100;13.998;2023-01-08T07:08:12;23.83;;;9.43;;
14076;SDS011;7114;51.100;13.998;2023-01-08T07:10:39;24.52;;;9.13;;
14076;SDS011;7114;51.100;13.998;2023-01-08T07:13:05;24.15;;;9.95;;
14076;SDS011;7114;51.100;13.998;2023-01-08T07:15:34;22.42;;;9.70;;
14076;SDS011;7114;51.100;13.998;2023-01-08T07:18:02;24.17;;;9.77;;
14076;SDS011;7114;51.100;13.998;2023-01-08T07:20:29;24.00;;;9.68;;
14076;SDS011;7114;51.100;13.998;2023-01-08T07:22:59;23.20;;;8.93;;
14076;SDS011;7114;51.100;13.998;2023-01-08T07:25:26;22.05;;;9.02;;
14076;SDS011;7114;51.100;13.998;2023-01-08T07:27:52;23.08;;;9.70;;
14076;SDS011;7114;51.100;13.998;2023-01-08T07:30:18;23.83;;;9.50;;
14076;SDS011;7114;51.100;13.998;2023-01-08T07:32:48;22.02;;;9.15;;
14076;SDS011;7114;51.100;13.998;2023-01-08T07:35:15;23.40;;;9.60;;
14076;SDS011;7114;51.100;13.998;2023-01-08T07:37:41;20.88;;;9.10;;
14076;SDS011;7114;51.100;13.998;2023-01-08T07:40:08;23.55;;;9.30;;
14076;SDS011;7114;51.100;13.998;2023-01-08T07:42:36;22.17;;;8.70;;
14076;SDS011;7114;51.100;13.998;2023-01-08T07:45:02;20.45;;;9.23;;
14076;SDS011;7114;51.100;13.998;2023-01-08T07:47:29;19.75;;;8.82;;
14076;SDS011;7114;51.100;13.998;2023-01-08T07:49:57;20.30;;;8.93;;
14076;SDS011;7114;51.100;13.998;2023-01-08T07:52:23;22.00;;;9.00;;
14076;SDS011;7114;51.100;13.998;2023-01-08T07:54:49;21.87;;;8.57;;
14076;SDS011;7114;51.100;13.998;2023-01-08T07:57:15;22.05;;;8.60;;
14076;SDS011;7114;51.100;13.998;2023-01-08T07:59:42;22.13;;;9.30;;
14076;SDS011;7114;51.100;13.998;2023-01-08T08:02:08;20.98;;;8.52;;
14076;SDS011;7114;51.100;13.998;2023-01-08T08:04:35;21.35;;;8.25;;
14076;SDS011;7114;51.100;13.998;2023-01-08T08:07:03;20.93;;;8.50;;
14076;SDS011;7114;51.100;13.998;2023-01-08T08:09:29;19.88;;;8.73;;
14076;SDS011;7114;51.100;13.998;2023-01-08T08:11:55;20.50;;;8.18;;
14076;SDS011;7114;51.100;13.998;2023-01-08T08:14:22;22.08;;;9.05;;
14076;SDS011;7114;51.100;13.998;2023-01-08T08:16:48;21.10;;;9.40;;
14076;SDS011;7114;51.100;13.998;2023-01-08T08:19:15;18.13;;;8.27;;
14076;SDS011;7114;51.100;13.998;2023-01-08T08:21:41;20.17;;;8.35;;
14076;SDS011;7114;51.100;13.998;2023-01-08T08:24:09;20.35;;;8.60;;
14076;SDS011;7114;51.100;13.998;2023-01-08T08:26:35;19.40;;;8.52;;
14076;SDS011;7114;51.100;13.998;2023-01-08T08:29:01;19.23;;;7.60;;
14076;SDS011;7114;51.100;13.998;2023-01-08T08:31:27;22.93;;;8.90;;
14076;SDS011;7114;51.100;13.998;2023-01-08T08:33:54;19.52;;;8.18;;
14076;SDS011;7114;51.100;13.998;2023-01-08T08:36:20;20.90;;;8.55;;
14076;SDS011;7114;51.100;13.998;2023-01-08T08:38:46;20.08;;;7.97;;
14076;SDS011;7114;51.100;13.998;2023-01-08T08:41:14;19.48;;;8.27;;
14076;SDS011;7114;51.100;13.998;2023-01-08T08:43:41;19.63;;;8.47;;
14076;SDS011;7114;51.100;13.998;2023-01-08T08:46:08;18.45;;;8.10;;
14076;SDS011;7114;51.100;13.998;2023-01-08T08:48:34;20.98;;;8.00;;
14076;SDS011;7114;51.100;13.998;2023-01-08T08:51:00;19.77;;;7.97;;
14076;SDS011;7114;51.100;13.998;2023-01-08T08:53:26;18.65;;;7.75;;
14076;SDS011;7114;51.100;13.998;2023-01-08T08:55:53;20.77;;;8.83;;
14076;SDS011;7114;51.100;13.998;2023-01-08T08:58:20;17.80;;;7.63;;
14076;SDS011;7114;51.100;13.998;2023-01-08T09:00:47;20.40;;;8.10;;
14076;SDS011;7114;51.100;13.998;2023-01-08T09:03:13;18.15;;;7.30;;
14076;SDS011;7114;51.100;13.998;2023-01-08T09:05:40;18.40;;;7.47;;
14076;SDS011;7114;51.100;13.998;2023-01-08T09:08:06;19.87;;;7.90;;
14076;SDS011;7114;51.100;13.998;2023-01-08T09:10:35;18.80;;;7.65;;
14076;SDS011;7114;51.100;13.998;2023-01-08T09:13:01;17.23;;;7.25;;
14076;SDS011;7114;51.100;13.998;2023-01-08T09:15:29;18.00;;;6.88;;
14076;SDS011;7114;51.100;13.998;2023-01-08T09:17:55;17.30;;;6.93;;
14076;SDS011;7114;51.100;13.998;2023-01-08T09:20:22;16.23;;;7.20;;
14076;SDS011;7114;51.100;13.998;2023-01-08T09:22:49;17.42;;;7.15;;
14076;SDS011;7114;51.100;13.998;2023-01-08T09:25:16;18.63;;;7.18;;
14076;SDS011;7114;51.100;13.998;2023-01-08T09:27:42;17.33;;;7.30;;
14076;SDS011;7114;51.100;13.998;2023-01-08T09:30:09;18.55;;;7.53;;
14076;SDS011;7114;51.100;13.998;2023-01-08T09:32:37;16.53;;;7.13;;
14076;SDS011;7114;51.100;13.998;2023-01-08T09:35:03;17.15;;;7.40;;
14076;SDS011;7114;51.100;13.998;2023-01-08T09:37:30;18.48;;;7.38;;
14076;SDS011;7114;51.100;13.998;2023-01-08T09:39:56;17.38;;;6.95;;
14076;SDS011;7114;51.100;13.998;2023-01-08T09:42:23;16.08;;;7.32;;
14076;SDS011;7114;51.100;13.998;2023-01-08T09:44:51;17.67;;;7.47;;
14076;SDS011;7114;51.100;13.998;2023-01-08T09:47:20;16.20;;;6.70;;
14076;SDS011;7114;51.100;13.998;2023-01-08T09:49:50;18.83;;;7.72;;
14076;SDS011;7114;51.100;13.998;2023-01-08T09:52:17;17.85;;;7.32;;
14076;SDS011;7114;51.100;13.998;2023-01-08T09:54:43;17.77;;;7.65;;
14076;SDS011;7114;51.100;13.998;2023-01-08T09:57:11;17.73;;;6.90;;
14076;SDS011;7114;51.100;13.998;2023-01-08T09:59:38;16.05;;;6.78;;
14076;SDS011;7114;51.100;13.998;2023-01-08T10:02:08;18.08;;;6.93;;
14076;SDS011;7114;51.100;13.998;2023-01-08T10:04:38;16.23;;;6.60;;
14076;SDS011;7114;51.100;13.998;2023-01-08T10:07:10;15.63;;;6.30;;
14076;SDS011;7114;51.100;13.998;2023-01-08T10:09:39;17.53;;;6.50;;
14076;SDS011;7114;51.100;13.998;2023-01-08T10:12:06;17.42;;;6.72;;
14076;SDS011;7114;51.100;13.998;2023-01-08T10:14:36;15.88;;;6.57;;
14076;SDS011;7114;51.100;13.998;2023-01-08T10:17:06;17.38;;;7.25;;
14076;SDS011;7114;51.100;13.998;2023-01-08T10:19:33;18.85;;;7.22;;
14076;SDS011;7114;51.100;13.998;2023-01-08T10:22:00;15.97;;;6.67;;
14076;SDS011;7114;51.100;13.998;2023-01-08T10:24:31;15.73;;;6.60;;
14076;SDS011;7114;51.100;13.998;2023-01-08T10:27:05;17.83;;;7.32;;
14076;SDS011;7114;51.100;13.998;2023-01-08T10:29:32;17.02;;;6.97;;
14076;SDS011;7114;51.100;13.998;2023-01-08T10:31:58;16.80;;;6.57;;
14076;SDS011;7114;51.100;13.998;2023-01-08T10:34:38;15.63;;;7.03;;
14076;SDS011;7114;51.100;13.998;2023-01-08T10:37:12;18.88;;;7.47;;
14076;SDS011;7114;51.100;13.998;2023-01-08T10:39:47;17.52;;;6.68;;
14076;SDS011;7114;51.100;13.998;2023-01-08T10:42:14;17.67;;;7.25;;
14076;SDS011;7114;51.100;13.998;2023-01-08T10:44:45;16.33;;;6.93;;
14076;SDS011;7114;51.100;13.998;2023-01-08T10:47:17;16.27;;;7.00;;
14076;SDS011;7114;51.100;13.998;2023-01-08T10:49:43;17.38;;;7.30;;
14076;SDS011;7114;51.100;13.998;2023-01-08T10:52:20;16.20;;;6.78;;
14076;SDS011;7114;51.100;13.998;2023-01-08T10:54:50;17.58;;;6.78;;
14076;SDS011;7114;51.100;13.998;2023-01-08T10:57:19;16.25;;;7.10;;
14076;SDS011;7114;51.100;13.998;2023-01-08T10:59:46;17.10;;;6.93;;
14076;SDS011;7114;51.100;13.998;2023-01-08T11:02:16;16.27;;;6.80;;
14076;SDS011;7114;51.100;13.998;2023-01-08T11:05:02;15.90;;;6.72;;
14076;SDS011;7114;51.100;13.998;2023-01-08T11:07:31;17.10;;;6.90;;
14076;SDS011;7114;51.100;13.998;2023-01-08T11:10:00;16.25;;;6.28;;
14076;SDS011;7114;51.100;13.998;2023-01-08T11:12:33;16.37;;;6.97;;
14076;SDS011;7114;51.100;13.998;2023-01-08T11:15:00;15.63;;;6.50;;
14076;SDS011;7114;51.100;13.998;2023-01-08T11:17:28;15.77;;;6.57;;
14076;SDS011;7114;51.100;13.998;2023-01-08T11:19:54;16.60;;;7.00;;
14076;SDS011;7114;51.100;13.998;2023-01-08T11:22:32;15.27;;;6.53;;
14076;SDS011;7114;51.100;13.998;2023-01-08T11:24:58;15.80;;;6.60;;
14076;SDS011;7114;51.100;13.998;2023-01-08T11:27:27;15.68;;;6.70;;
14076;SDS011;7114;51.100;13.998;2023-01-08T11:29:57;16.23;;;6.88;;
14076;SDS011;7114;51.100;13.998;2023-01-08T11:32:28;16.98;;;6.95;;
14076;SDS011;7114;51.100;13.998;2023-01-08T11:35:00;16.15;;;6.93;;
14076;SDS011;7114;51.100;13.998;2023-01-08T11:37:29;17.60;;;7.17;;
14076;SDS011;7114;51.100;13.998;2023-01-08T11:39:58;16.80;;;6.95;;
14076;SDS011;7114;51.100;13.998;2023-01-08T11:42:29;17.30;;;7.38;;
14076;SDS011;7114;51.100;13.998;2023-01-08T11:45:06;16.27;;;7.10;;
14076;SDS011;7114;51.100;13.998;2023-01-08T11:47:43;17.83;;;7.57;;
14076;SDS011;7114;51.100;13.998;2023-01-08T11:50:18;17.73;;;7.27;;
14076;SDS011;7114;51.100;13.998;2023-01-08T11:52:51;17.50;;;7.40;;
14076;SDS011;7114;51.100;13.998;2023-01-08T11:55:29;17.60;;;7.40;;
14076;SDS011;7114;51.100;13.998;2023-01-08T11:58:06;18.02;;;7.88;;
14076;SDS011;7114;51.100;13.998;2023-01-08T12:00:43;18.70;;;8.50;;
14076;SDS011;7114;51.100;13.998;2023-01-08T12:03:20;18.63;;;8.57;;
14076;SDS011;7114;51.100;13.998;2023-01-08T12:05:52;17.77;;;7.95;;
14076;SDS011;7114;51.100;13.998;2023-01-08T12:08:22;20.45;;;8.65;;
14076;SDS011;7114;51.100;13.998;2023-01-08T12:10:56;19.55;;;8.10;;
14076;SDS011;7114;51.100;13.998;2023-01-08T12:13:30;20.13;;;8.65;;
14076;SDS011;7114;51.100;13.998;2023-01-08T12:16:07;19.37;;;8.27;;
14076;SDS011;7114;51.100;13.998;2023-01-08T12:18:43;19.92;;;8.13;;
14076;SDS011;7114;51.100;13.998;2023-01-08T12:21:17;20.40;;;8.70;;
14076;SDS011;7114;51.100;13.998;2023-01-08T12:23:58;20.30;;;8.60;;
14076;SDS011;7114;51.100;13.998;2023-01-08T12:26:37;19.85;;;8.35;;
14076;SDS011;7114;51.100;13.998;2023-01-08T12:29:13;20.40;;;8.83;;
14076;SDS011;7114;51.100;13.998;2023-01-08T12:31:49;19.60;;;8.68;;
14076;SDS011;7114;51.100;13.998;2023-01-08T12:34:36;20.33;;;8.75;;
14076;SDS011;7114;51.100;13.998;2023-01-08T12:37:06;19.50;;;8.60;;
14076;SDS011;7114;51.100;13.998;2023-01-08T12:39:40;19.27;;;8.07;;
14076;SDS011;7114;51.100;13.998;2023-01-08T12:42:12;19.80;;;9.00;;
14076;SDS011;7114;51.100;13.998;2023-01-08T12:44:40;19.77;;;9.52;;
14076;SDS011;7114;51.100;13.998;2023-01-08T12:47:08;18.63;;;8.32;;
14076;SDS011;7114;51.100;13.998;2023-01-08T12:49:41;19.42;;;8.43;;
14076;SDS011;7114;51.100;13.998;2023-01-08T12:52:14;21.55;;;9.32;;
14076;SDS011;7114;51.100;13.998;2023-01-08T12:54:43;19.03;;;8.77;;
14076;SDS011;7114;51.100;13.998;2023-01-08T12:57:15;19.27;;;8.77;;
14076;SDS011;7114;51.100;13.998;2023-01-08T12:59:46;19.42;;;8.55;;
14076;SDS011;7114;51.100;13.998;2023-01-08T13:02:17;19.17;;;8.55;;
14076;SDS011;7114;51.100;13.998;2023-01-08T13:04:49;21.60;;;9.50;;
14076;SDS011;7114;51.100;13.998;2023-01-08T13:07:17;18.53;;;9.20;;
14076;SDS011;7114;51.100;13.998;2023-01-08T13:09:52;19.63;;;8.98;;
14076;SDS011;7114;51.100;13.998;2023-01-08T13:12:23;20.25;;;8.93;;
14076;SDS011;7114;51.100;13.998;2023-01-08T13:14:54;19.95;;;8.85;;
14076;SDS011;7114;51.100;13.998;2023-01-08T13:17:21;20.02;;;8.90;;
14076;SDS011;7114;51.100;13.998;2023-01-08T13:19:50;21.07;;;9.07;;
14076;SDS011;7114;51.100;13.998;2023-01-08T13:22:22;20.60;;;9.43;;
14076;SDS011;7114;51.100;13.998;2023-01-08T13:24:49;20.48;;;9.75;;
14076;SDS011;7114;51.100;13.998;2023-01-08T13:27:26;19.98;;;8.70;;
14076;SDS011;7114;51.100;13.998;2023-01-08T13:29:54;21.15;;;9.60;;
14076;SDS011;7114;51.100;13.998;2023-01-08T13:32:25;20.83;;;9.27;;
14076;SDS011;7114;51.100;13.998;2023-01-08T13:35:13;22.02;;;9.65;;
14076;SDS011;7114;51.100;13.998;2023-01-08T13:37:45;21.02;;;9.15;;
14076;SDS011;7114;51.100;13.998;2023-01-08T13:43:01;22.10;;;9.65;;
14076;SDS011;7114;51.100;13.998;2023-01-08T13:45:31;21.37;;;9.30;;
14076;SDS011;7114;51.100;13.998;2023-01-08T13:47:57;21.85;;;9.48;;
14076;SDS011;7114;51.100;13.998;2023-01-08T13:50:25;26.10;;;10.23;;
14076;SDS011;7114;51.100;13.998;2023-01-08T13:52:55;21.75;;;9.70;;
14076;SDS011;7114;51.100;13.998;2023-01-08T13:55:26;22.08;;;9.80;;
14076;SDS011;7114;51.100;13.998;2023-01-08T13:57:54;24.17;;;10.50;;
14076;SDS011;7114;51.100;13.998;2023-01-08T14:00:22;22.40;;;9.25;;
14076;SDS011;7114;51.100;13.998;2023-01-08T14:02:51;21.63;;;9.52;;
14076;SDS011;7114;51.100;13.998;2023-01-08T14:05:23;24.35;;;10.05;;
14076;SDS011;7114;51.100;13.998;2023-01-08T14:07:51;24.13;;;9.77;;
14076;SDS011;7114;51.100;13.998;2023-01-08T14:10:18;25.57;;;10.63;;
14076;SDS011;7114;51.100;13.998;2023-01-08T14:12:45;25.40;;;10.55;;
14076;SDS011;7114;51.100;13.998;2023-01-08T14:15:16;24.48;;;10.85;;
14076;SDS011;7114;51.100;13.998;2023-01-08T14:17:50;24.67;;;10.35;;
14076;SDS011;7114;51.100;13.998;2023-01-08T14:20:26;24.60;;;10.27;;
14076;SDS011;7114;51.100;13.998;2023-01-08T14:22:55;22.77;;;9.77;;
14076;SDS011;7114;51.100;13.998;2023-01-08T14:25:21;21.80;;;9.70;;
14076;SDS011;7114;51.100;13.998;2023-01-08T14:27:55;22.35;;;10.02;;
14076;SDS011;7114;51.100;13.998;2023-01-08T14:30:23;23.73;;;10.63;;
14076;SDS011;7114;51.100;13.998;2023-01-08T14:32:51;22.58;;;9.88;;
14076;SDS011;7114;51.100;13.998;2023-01-08T14:35:19;23.30;;;10.20;;
14076;SDS011;7114;51.100;13.998;2023-01-08T14:37:48;25.42;;;10.15;;
14076;SDS011;7114;51.100;13.998;2023-01-08T14:40:15;22.92;;;9.98;;
14076;SDS011;7114;51.100;13.998;2023-01-08T14:42:42;25.30;;;10.00;;